sensor_id;sensor_type;location;lat;lon;timestamp;pressure;altitude;pressure_sealevel;temperature;humidity
7824;BME280;3957;48.61947800;9.05303100;2022-12-18T00:00:44;97018.50;;;-13.62;100.00
7824;BME280;3957;48.61947800;9.05303100;2022-12-18T00:01:44;97009.94;;;-13.64;100.00
7824;BME280;3957;48.61947800;9.05303100;2022-12-18T00:02:45;97016.91;;;-13.68;100.00
7824;BME280;3957;48.61947800;9.05303100;2022-12-18T00:03:45;97022.97;;;-13.71;100.00
7824;BME280;3957;48.61947800;9.05303100;2022-12-18T00:04:48;97016.97;;;-13.73;100.00
7824;BME280;3957;48.61947800;9.05303100;2022-12-18T00:05:51;97025.44;;;-13.66;100.00
7824;BME280;3957;48.61947800;9.05303100;2022-12-18T00:06:52;97029.44;;;-13.53;100.00
7824;BME280;3957;48.61947800;9.05303100;2022-12-18T00:07:52;97025.84;;;-13.45;100.00
7824;BME280;3957;48.61947800;9.05303100;2022-12-18T00:08:55;97018.88;;;-13.40;100.00
7824;BME280;3957;48.61947800;9.05303100;2022-12-18T00:09:56;97023.31;;;-13.47;100.00
7824;BME280;3957;48.61947800;9.05303100;2022-12-18T00:11:06;97024.41;;;-13.57;100.00
7824;BME280;3957;48.61947800;9.05303100;2022-12-18T00:12:07;97022.06;;;-13.68;100.00
7824;BME280;3957;48.61947800;9.05303100;2022-12-18T00:13:07;97023.00;;;-13.72;100.00
7824;BME280;3957;48.61947800;9.05303100;2022-12-18T00:14:09;97021.34;;;-13.75;100.00
7824;BME280;3957;48.61947800;9.05303100;2022-12-18T00:15:10;97023.03;;;-13.75;100.00
7824;BME280;3957;48.61947800;9.05303100;2022-12-18T00:16:13;97013.66;;;-13.76;100.00
7824;BME280;3957;48.61947800;9.05303100;2022-12-18T00:17:14;97012.81;;;-13.78;100.00
7824;BME280;3957;48.61947800;9.05303100;2022-12-18T00:18:14;97006.88;;;-13.80;100.00
7824;BME280;3957;48.61947800;9.05303100;2022-12-18T00:19:15;97000.03;;;-13.81;100.00
7824;BME280;3957;48.61947800;9.05303100;2022-12-18T00:20:15;97006.84;;;-13.79;100.00
7824;BME280;3957;48.61947800;9.05303100;2022-12-18T00:21:21;97004.22;;;-13.77;100.00
7824;BME280;3957;48.61947800;9.05303100;2022-12-18T00:22:21;97006.72;;;-13.74;100.00
7824;BME280;3957;48.61947800;9.05303100;2022-12-18T00:23:22;97011.81;;;-13.71;100.00
7824;BME280;3957;48.61947800;9.05303100;2022-12-18T00:24:22;97011.81;;;-13.70;100.00
7824;BME280;3957;48.61947800;9.05303100;2022-12-18T00:25:23;97011.75;;;-13.68;100.00
7824;BME280;3957;48.61947800;9.05303100;2022-12-18T00:26:26;97022.94;;;-13.69;100.00
7824;BME280;3957;48.61947800;9.05303100;2022-12-18T00:27:30;97016.94;;;-13.70;100.00
7824;BME280;3957;48.61947800;9.05303100;2022-12-18T00:28:31;97025.50;;;-13.69;100.00
7824;BME280;3957;48.61947800;9.05303100;2022-12-18T00:29:32;97018.69;;;-13.72;100.00
7824;BME280;3957;48.61947800;9.05303100;2022-12-18T00:30:32;97028.16;;;-13.72;100.00
7824;BME280;3957;48.61947800;9.05303100;2022-12-18T00:31:33;97025.59;;;-13.74;100.00
7824;BME280;3957;48.61947800;9.05303100;2022-12-18T00:32:35;97027.41;;;-13.79;100.00
7824;BME280;3957;48.61947800;9.05303100;2022-12-18T00:33:36;97025.72;;;-13.80;100.00
7824;BME280;3957;48.61947800;9.05303100;2022-12-18T00:34:37;97028.22;;;-13.77;100.00
7824;BME280;3957;48.61947800;9.05303100;2022-12-18T00:35:37;97027.31;;;-13.74;100.00
7824;BME280;3957;48.61947800;9.05303100;2022-12-18T00:36:39;97034.06;;;-13.69;100.00
7824;BME280;3957;48.61947800;9.05303100;2022-12-18T00:37:39;97031.44;;;-13.67;100.00
7824;BME280;3957;48.61947800;9.05303100;2022-12-18T00:38:40;97031.69;;;-13.78;100.00
7824;BME280;3957;48.61947800;9.05303100;2022-12-18T00:39:41;97035.78;;;-13.69;100.00
7824;BME280;3957;48.61947800;9.05303100;2022-12-18T00:40:41;97033.91;;;-13.61;100.00
7824;BME280;3957;48.61947800;9.05303100;2022-12-18T00:41:41;97026.03;;;-13.55;100.00
7824;BME280;3957;48.61947800;9.05303100;2022-12-18T00:43:00;97032.16;;;-13.60;100.00
7824;BME280;3957;48.61947800;9.05303100;2022-12-18T00:44:02;97030.41;;;-13.58;100.00
7824;BME280;3957;48.61947800;9.05303100;2022-12-18T00:45:03;97025.34;;;-13.61;100.00
7824;BME280;3957;48.61947800;9.05303100;2022-12-18T00:46:05;97030.53;;;-13.64;100.00
7824;BME280;3957;48.61947800;9.05303100;2022-12-18T00:47:06;97022.09;;;-13.71;100.00
7824;BME280;3957;48.61947800;9.05303100;2022-12-18T00:48:07;97029.84;;;-13.73;100.00
7824;BME280;3957;48.61947800;9.05303100;2022-12-18T00:49:07;97023.03;;;-13.74;100.00
7824;BME280;3957;48.61947800;9.05303100;2022-12-18T00:50:08;97020.47;;;-13.75;100.00
7824;BME280;3957;48.61947800;9.05303100;2022-12-18T00:51:09;97017.03;;;-13.74;100.00
7824;BME280;3957;48.61947800;9.05303100;2022-12-18T00:52:09;97020.47;;;-13.75;100.00
7824;BME280;3957;48.61947800;9.05303100;2022-12-18T00:53:11;97015.34;;;-13.77;100.00
7824;BME280;3957;48.61947800;9.05303100;2022-12-18T00:54:11;97017.84;;;-13.72;100.00
7824;BME280;3957;48.61947800;9.05303100;2022-12-18T00:55:13;97020.47;;;-13.75;100.00
7824;BME280;3957;48.61947800;9.05303100;2022-12-18T00:56:13;97021.41;;;-13.78;100.00
7824;BME280;3957;48.61947800;9.05303100;2022-12-18T00:57:13;97031.69;;;-13.79;100.00
7824;BME280;3957;48.61947800;9.05303100;2022-12-18T00:58:17;97036.81;;;-13.76;100.00
7824;BME280;3957;48.61947800;9.05303100;2022-12-18T00:59:18;97031.69;;;-13.79;100.00
7824;BME280;3957;48.61947800;9.05303100;2022-12-18T01:00:18;97038.59;;;-13.80;100.00
7824;BME280;3957;48.61947800;9.05303100;2022-12-18T01:01:19;97037.75;;;-13.80;100.00
7824;BME280;3957;48.61947800;9.05303100;2022-12-18T01:02:19;97041.19;;;-13.81;100.00
7824;BME280;3957;48.61947800;9.05303100;2022-12-18T01:03:20;97039.56;;;-13.86;100.00
7824;BME280;3957;48.61947800;9.05303100;2022-12-18T01:04:20;97032.72;;;-13.87;100.00
7824;BME280;3957;48.61947800;9.05303100;2022-12-18T01:05:21;97038.72;;;-13.86;100.00
7824;BME280;3957;48.61947800;9.05303100;2022-12-18T01:06:21;97044.56;;;-13.79;100.00
7824;BME280;3957;48.61947800;9.05303100;2022-12-18T01:07:22;97041.22;;;-13.83;100.00
7824;BME280;3957;48.61947800;9.05303100;2022-12-18T01:08:22;97036.00;;;-13.80;100.00
7824;BME280;3957;48.61947800;9.05303100;2022-12-18T01:09:23;97036.09;;;-13.83;100.00
7824;BME280;3957;48.61947800;9.05303100;2022-12-18T01:10:26;97031.88;;;-13.87;100.00
7824;BME280;3957;48.61947800;9.05303100;2022-12-18T01:11:26;97036.16;;;-13.86;100.00
7824;BME280;3957;48.61947800;9.05303100;2022-12-18T01:12:27;97026.72;;;-13.87;100.00
7824;BME280;3957;48.61947800;9.05303100;2022-12-18T01:13:27;97033.59;;;-13.86;100.00
7824;BME280;3957;48.61947800;9.05303100;2022-12-18T01:14:27;97031.03;;;-13.88;100.00
7824;BME280;3957;48.61947800;9.05303100;2022-12-18T01:15:28;97034.41;;;-13.86;100.00
7824;BME280;3957;48.61947800;9.05303100;2022-12-18T01:16:28;97031.03;;;-13.88;100.00
7824;BME280;3957;48.61947800;9.05303100;2022-12-18T01:17:30;97032.63;;;-13.82;100.00
7824;BME280;3957;48.61947800;9.05303100;2022-12-18T01:18:31;97037.84;;;-13.87;100.00
7824;BME280;3957;48.61947800;9.05303100;2022-12-18T01:19:32;97033.66;;;-13.91;100.00
7824;BME280;3957;48.61947800;9.05303100;2022-12-18T01:20:33;97034.56;;;-13.92;100.00
7824;BME280;3957;48.61947800;9.05303100;2022-12-18T01:21:33;97025.16;;;-13.94;100.00
7824;BME280;3957;48.61947800;9.05303100;2022-12-18T01:22:37;97032.84;;;-13.93;100.00
7824;BME280;3957;48.61947800;9.05303100;2022-12-18T01:23:38;97028.56;;;-13.94;100.00
7824;BME280;3957;48.61947800;9.05303100;2022-12-18T01:24:38;97027.75;;;-13.94;100.00
7824;BME280;3957;48.61947800;9.05303100;2022-12-18T01:25:39;97033.88;;;-14.00;100.00
7824;BME280;3957;48.61947800;9.05303100;2022-12-18T01:26:43;97036.47;;;-14.03;100.00
7824;BME280;3957;48.61947800;9.05303100;2022-12-18T01:27:43;97029.66;;;-14.04;100.00
7824;BME280;3957;48.61947800;9.05303100;2022-12-18T01:28:44;97028.00;;;-14.07;100.00
7824;BME280;3957;48.61947800;9.05303100;2022-12-18T01:29:44;97028.03;;;-14.10;100.00
7824;BME280;3957;48.61947800;9.05303100;2022-12-18T01:30:44;97022.91;;;-14.11;100.00
7824;BME280;3957;48.61947800;9.05303100;2022-12-18T01:31:46;97027.25;;;-14.13;100.00
7824;BME280;3957;48.61947800;9.05303100;2022-12-18T01:32:47;97022.06;;;-14.12;100.00
7824;BME280;3957;48.61947800;9.05303100;2022-12-18T01:33:48;97022.72;;;-14.00;100.00
7824;BME280;3957;48.61947800;9.05303100;2022-12-18T01:34:48;97031.19;;;-13.95;100.00
7824;BME280;3957;48.61947800;9.05303100;2022-12-18T01:35:48;97024.28;;;-13.93;100.00
7824;BME280;3957;48.61947800;9.05303100;2022-12-18T01:36:49;97031.03;;;-13.88;100.00
7824;BME280;3957;48.61947800;9.05303100;2022-12-18T01:37:55;97038.63;;;-13.81;100.00
7824;BME280;3957;48.61947800;9.05303100;2022-12-18T01:38:56;97042.09;;;-13.84;100.00
7824;BME280;3957;48.61947800;9.05303100;2022-12-18T01:39:58;97039.50;;;-13.82;100.00
7824;BME280;3957;48.61947800;9.05303100;2022-12-18T01:41:00;97044.41;;;-13.72;100.00
7824;BME280;3957;48.61947800;9.05303100;2022-12-18T01:42:11;97052.19;;;-13.73;100.00
7824;BME280;3957;48.61947800;9.05303100;2022-12-18T01:43:11;97038.38;;;-13.69;100.00
7824;BME280;3957;48.61947800;9.05303100;2022-12-18T01:45:49;97040.88;;;-13.66;100.00
7824;BME280;3957;48.61947800;9.05303100;2022-12-18T01:46:49;97036.41;;;-13.58;100.00
7824;BME280;3957;48.61947800;9.05303100;2022-12-18T01:48:10;97033.78;;;-13.56;100.00
7824;BME280;3957;48.61947800;9.05303100;2022-12-18T01:49:10;97041.38;;;-13.48;100.00
7824;BME280;3957;48.61947800;9.05303100;2022-12-18T01:51:14;97044.69;;;-13.45;100.00
7824;BME280;3957;48.61947800;9.05303100;2022-12-18T01:52:16;97041.22;;;-13.42;100.00
7824;BME280;3957;48.61947800;9.05303100;2022-12-18T01:53:20;97047.00;;;-13.34;100.00
7824;BME280;3957;48.61947800;9.05303100;2022-12-18T01:54:21;97034.09;;;-13.32;100.00
7824;BME280;3957;48.61947800;9.05303100;2022-12-18T01:55:24;97036.63;;;-13.29;100.00
7824;BME280;3957;48.61947800;9.05303100;2022-12-18T01:56:25;97030.56;;;-13.27;100.00
7824;BME280;3957;48.61947800;9.05303100;2022-12-18T01:57:27;97023.53;;;-13.20;100.00
7824;BME280;3957;48.61947800;9.05303100;2022-12-18T01:58:45;97026.97;;;-13.20;100.00
7824;BME280;3957;48.61947800;9.05303100;2022-12-18T01:59:49;97024.50;;;-13.26;100.00
7824;BME280;3957;48.61947800;9.05303100;2022-12-18T02:00:51;97016.78;;;-13.26;100.00
7824;BME280;3957;48.61947800;9.05303100;2022-12-18T02:01:53;97014.13;;;-13.21;100.00
7824;BME280;3957;48.61947800;9.05303100;2022-12-18T02:02:54;97015.78;;;-13.20;100.00
7824;BME280;3957;48.61947800;9.05303100;2022-12-18T02:03:54;97013.22;;;-13.20;100.00
7824;BME280;3957;48.61947800;9.05303100;2022-12-18T02:04:55;97013.94;;;-13.13;100.00
7824;BME280;3957;48.61947800;9.05303100;2022-12-18T02:06:07;97011.09;;;-13.03;100.00
7824;BME280;3957;48.61947800;9.05303100;2022-12-18T02:07:37;97017.22;;;-13.07;100.00
7824;BME280;3957;48.61947800;9.05303100;2022-12-18T02:08:53;97018.75;;;-13.00;100.00
7824;BME280;3957;48.61947800;9.05303100;2022-12-18T02:11:18;97032.88;;;-12.78;100.00
7824;BME280;3957;48.61947800;9.05303100;2022-12-18T02:12:29;97041.47;;;-12.79;100.00
7824;BME280;3957;48.61947800;9.05303100;2022-12-18T02:14:01;97023.34;;;-12.76;100.00
7824;BME280;3957;48.61947800;9.05303100;2022-12-18T02:15:16;97032.81;;;-12.77;100.00
7824;BME280;3957;48.61947800;9.05303100;2022-12-18T02:17:10;97028.59;;;-12.79;100.00
7824;BME280;3957;48.61947800;9.05303100;2022-12-18T02:17:59;97022.56;;;-12.78;100.00
7824;BME280;3957;48.61947800;9.05303100;2022-12-18T02:19:08;97022.56;;;-12.80;100.00
7824;BME280;3957;48.61947800;9.05303100;2022-12-18T02:20:33;97029.47;;;-12.80;100.00
7824;BME280;3957;48.61947800;9.05303100;2022-12-18T02:21:51;97022.56;;;-12.78;100.00
7824;BME280;3957;48.61947800;9.05303100;2022-12-18T02:24:38;97029.41;;;-12.79;100.00
7824;BME280;3957;48.61947800;9.05303100;2022-12-18T02:27:19;97025.06;;;-12.75;100.00
7824;BME280;3957;48.61947800;9.05303100;2022-12-18T02:28:22;97029.31;;;-12.74;100.00
7824;BME280;3957;48.61947800;9.05303100;2022-12-18T02:29:33;97027.41;;;-12.66;100.00
7824;BME280;3957;48.61947800;9.05303100;2022-12-18T02:30:36;97034.00;;;-12.56;100.00
7824;BME280;3957;48.61947800;9.05303100;2022-12-18T02:31:45;97032.22;;;-12.52;100.00
7824;BME280;3957;48.61947800;9.05303100;2022-12-18T02:32:50;97044.22;;;-12.53;100.00
7824;BME280;3957;48.61947800;9.05303100;2022-12-18T02:33:54;97044.31;;;-12.56;100.00
7824;BME280;3957;48.61947800;9.05303100;2022-12-18T02:34:57;97040.00;;;-12.55;100.00
7824;BME280;3957;48.61947800;9.05303100;2022-12-18T02:36:01;97048.72;;;-12.61;100.00
7824;BME280;3957;48.61947800;9.05303100;2022-12-18T02:37:06;97048.69;;;-12.58;100.00
7824;BME280;3957;48.61947800;9.05303100;2022-12-18T02:38:09;97044.84;;;-12.43;100.00
7824;BME280;3957;48.61947800;9.05303100;2022-12-18T02:39:12;97044.56;;;-12.32;100.00
7824;BME280;3957;48.61947800;9.05303100;2022-12-18T02:40:22;97044.94;;;-12.46;100.00
7824;BME280;3957;48.61947800;9.05303100;2022-12-18T02:41:25;97044.19;;;-12.51;100.00
7824;BME280;3957;48.61947800;9.05303100;2022-12-18T02:42:27;97046.16;;;-12.61;100.00
7824;BME280;3957;48.61947800;9.05303100;2022-12-18T02:43:29;97046.94;;;-12.57;100.00
7824;BME280;3957;48.61947800;9.05303100;2022-12-18T02:44:30;97045.00;;;-12.49;100.00
7824;BME280;3957;48.61947800;9.05303100;2022-12-18T02:45:31;97045.66;;;-12.41;100.00
7824;BME280;3957;48.61947800;9.05303100;2022-12-18T02:47:42;97042.84;;;-12.32;100.00
7824;BME280;3957;48.61947800;9.05303100;2022-12-18T02:48:46;97048.06;;;-12.35;100.00
7824;BME280;3957;48.61947800;9.05303100;2022-12-18T02:51:26;97044.34;;;-12.23;100.00
7824;BME280;3957;48.61947800;9.05303100;2022-12-18T02:53:43;97056.13;;;-12.14;100.00
7824;BME280;3957;48.61947800;9.05303100;2022-12-18T02:56:31;97049.59;;;-12.26;100.00
7824;BME280;3957;48.61947800;9.05303100;2022-12-18T02:57:55;97048.03;;;-12.33;100.00
7824;BME280;3957;48.61947800;9.05303100;2022-12-18T02:59:12;97049.81;;;-12.35;100.00
7824;BME280;3957;48.61947800;9.05303100;2022-12-18T03:00:43;97053.28;;;-12.36;100.00
7824;BME280;3957;48.61947800;9.05303100;2022-12-18T03:03:03;97047.31;;;-12.38;100.00
7824;BME280;3957;48.61947800;9.05303100;2022-12-18T03:04:29;97041.16;;;-12.33;100.00
7824;BME280;3957;48.61947800;9.05303100;2022-12-18T03:05:47;97035.13;;;-12.32;100.00
7824;BME280;3957;48.61947800;9.05303100;2022-12-18T03:06:54;97043.00;;;-12.38;100.00
7824;BME280;3957;48.61947800;9.05303100;2022-12-18T03:08:23;97032.09;;;-12.48;100.00
7824;BME280;3957;48.61947800;9.05303100;2022-12-18T03:09:33;97024.22;;;-12.43;100.00
7824;BME280;3957;48.61947800;9.05303100;2022-12-18T03:10:41;97041.47;;;-12.45;100.00
7824;BME280;3957;48.61947800;9.05303100;2022-12-18T03:11:47;97039.06;;;-12.53;100.00
7824;BME280;3957;48.61947800;9.05303100;2022-12-18T03:13:14;97044.78;;;-12.41;100.00
7824;BME280;3957;48.61947800;9.05303100;2022-12-18T03:14:20;97048.47;;;-12.50;100.00
7824;BME280;3957;48.61947800;9.05303100;2022-12-18T03:15:28;97054.53;;;-12.53;100.00
7824;BME280;3957;48.61947800;9.05303100;2022-12-18T03:16:39;97053.84;;;-12.58;100.00
7824;BME280;3957;48.61947800;9.05303100;2022-12-18T03:17:43;97043.53;;;-12.59;100.00
7824;BME280;3957;48.61947800;9.05303100;2022-12-18T03:18:48;97056.38;;;-12.56;100.00
7824;BME280;3957;48.61947800;9.05303100;2022-12-18T03:19:51;97053.00;;;-12.60;100.00
7824;BME280;3957;48.61947800;9.05303100;2022-12-18T03:20:54;97046.25;;;-12.64;100.00
7824;BME280;3957;48.61947800;9.05303100;2022-12-18T03:21:57;97053.00;;;-12.60;100.00
7824;BME280;3957;48.61947800;9.05303100;2022-12-18T03:23:11;97051.31;;;-12.61;100.00
7824;BME280;3957;48.61947800;9.05303100;2022-12-18T03:24:14;97053.00;;;-12.60;100.00
7824;BME280;3957;48.61947800;9.05303100;2022-12-18T03:25:16;97056.91;;;-12.43;100.00
7824;BME280;3957;48.61947800;9.05303100;2022-12-18T03:26:22;97055.19;;;-12.44;100.00
7824;BME280;3957;48.61947800;9.05303100;2022-12-18T03:27:29;97054.44;;;-12.48;100.00
7824;BME280;3957;48.61947800;9.05303100;2022-12-18T03:28:37;97057.03;;;-12.50;100.00
7824;BME280;3957;48.61947800;9.05303100;2022-12-18T03:29:43;97059.75;;;-12.54;100.00
7824;BME280;3957;48.61947800;9.05303100;2022-12-18T03:30:52;97053.84;;;-12.59;100.00
7824;BME280;3957;48.61947800;9.05303100;2022-12-18T03:32:01;97061.78;;;-12.67;100.00
7824;BME280;3957;48.61947800;9.05303100;2022-12-18T03:33:14;97065.25;;;-12.68;100.00
7824;BME280;3957;48.61947800;9.05303100;2022-12-18T03:34:23;97061.03;;;-12.72;100.00
7824;BME280;3957;48.61947800;9.05303100;2022-12-18T03:35:33;97061.00;;;-12.71;100.00
7824;BME280;3957;48.61947800;9.05303100;2022-12-18T03:36:35;97059.25;;;-12.69;100.00
7824;BME280;3957;48.61947800;9.05303100;2022-12-18T03:37:36;97058.50;;;-12.74;100.00
7824;BME280;3957;48.61947800;9.05303100;2022-12-18T03:38:37;97065.38;;;-12.73;100.00
7824;BME280;3957;48.61947800;9.05303100;2022-12-18T03:39:40;97064.44;;;-12.70;100.00
7824;BME280;3957;48.61947800;9.05303100;2022-12-18T03:41:52;97059.97;;;-12.63;100.00
7824;BME280;3957;48.61947800;9.05303100;2022-12-18T03:43:20;97056.59;;;-12.66;100.00
7824;BME280;3957;48.61947800;9.05303100;2022-12-18T03:44:42;97057.59;;;-12.71;100.00
7824;BME280;3957;48.61947800;9.05303100;2022-12-18T03:45:53;97054.94;;;-12.68;100.00
7824;BME280;3957;48.61947800;9.05303100;2022-12-18T03:48:21;97053.34;;;-12.74;100.00
7824;BME280;3957;48.61947800;9.05303100;2022-12-18T03:50:45;97065.75;;;-12.88;100.00
7824;BME280;3957;48.61947800;9.05303100;2022-12-18T03:51:57;97063.31;;;-12.96;100.00
7824;BME280;3957;48.61947800;9.05303100;2022-12-18T03:54:45;97058.41;;;-13.07;100.00
7824;BME280;3957;48.61947800;9.05303100;2022-12-18T03:55:50;97059.38;;;-13.11;100.00
7824;BME280;3957;48.61947800;9.05303100;2022-12-18T03:56:58;97056.88;;;-13.14;100.00
7824;BME280;3957;48.61947800;9.05303100;2022-12-18T03:58:03;97065.59;;;-13.20;100.00
7824;BME280;3957;48.61947800;9.05303100;2022-12-18T03:59:16;97050.22;;;-13.24;100.00
7824;BME280;3957;48.61947800;9.05303100;2022-12-18T04:00:19;97046.03;;;-13.28;100.00
7824;BME280;3957;48.61947800;9.05303100;2022-12-18T04:01:40;97052.13;;;-13.32;100.00
7824;BME280;3957;48.61947800;9.05303100;2022-12-18T04:02:51;97052.22;;;-13.36;100.00
7824;BME280;3957;48.61947800;9.05303100;2022-12-18T04:04:00;97058.31;;;-13.40;100.00
7824;BME280;3957;48.61947800;9.05303100;2022-12-18T04:05:05;97064.91;;;-13.28;100.00
7824;BME280;3957;48.61947800;9.05303100;2022-12-18T04:06:09;97058.03;;;-13.27;100.00
7824;BME280;3957;48.61947800;9.05303100;2022-12-18T04:07:13;97061.44;;;-13.25;100.00
7824;BME280;3957;48.61947800;9.05303100;2022-12-18T04:08:13;97055.41;;;-13.26;100.00
7824;BME280;3957;48.61947800;9.05303100;2022-12-18T04:09:19;97062.25;;;-13.25;100.00
7824;BME280;3957;48.61947800;9.05303100;2022-12-18T04:10:21;97059.56;;;-13.19;100.00
7824;BME280;3957;48.61947800;9.05303100;2022-12-18T04:11:21;97057.00;;;-13.20;100.00
7824;BME280;3957;48.61947800;9.05303100;2022-12-18T04:12:26;97059.09;;;-12.98;100.00
7824;BME280;3957;48.61947800;9.05303100;2022-12-18T04:13:33;97065.03;;;-12.95;100.00
7824;BME280;3957;48.61947800;9.05303100;2022-12-18T04:14:36;97067.38;;;-12.86;100.00
7824;BME280;3957;48.61947800;9.05303100;2022-12-18T04:15:38;97068.31;;;-12.90;100.00
7824;BME280;3957;48.61947800;9.05303100;2022-12-18T04:16:44;97059.84;;;-12.93;100.00
7824;BME280;3957;48.61947800;9.05303100;2022-12-18T04:17:49;97062.41;;;-12.93;100.00
7824;BME280;3957;48.61947800;9.05303100;2022-12-18T04:18:53;97064.91;;;-12.90;100.00
7824;BME280;3957;48.61947800;9.05303100;2022-12-18T04:19:54;97056.38;;;-12.92;100.00
7824;BME280;3957;48.61947800;9.05303100;2022-12-18T04:20:58;97058.97;;;-12.92;100.00
7824;BME280;3957;48.61947800;9.05303100;2022-12-18T04:21:58;97055.72;;;-13.01;100.00
7824;BME280;3957;48.61947800;9.05303100;2022-12-18T04:22:59;97054.91;;;-13.03;100.00
7824;BME280;3957;48.61947800;9.05303100;2022-12-18T04:24:01;97052.44;;;-13.07;100.00
7824;BME280;3957;48.61947800;9.05303100;2022-12-18T04:25:02;97058.63;;;-13.16;100.00
7824;BME280;3957;48.61947800;9.05303100;2022-12-18T04:26:10;97054.19;;;-13.09;100.00
7824;BME280;3957;48.61947800;9.05303100;2022-12-18T04:27:25;97057.53;;;-13.06;100.00
7824;BME280;3957;48.61947800;9.05303100;2022-12-18T04:28:25;97067.03;;;-13.08;100.00
7824;BME280;3957;48.61947800;9.05303100;2022-12-18T04:29:26;97067.94;;;-13.09;100.00
7824;BME280;3957;48.61947800;9.05303100;2022-12-18T04:30:26;97074.59;;;-13.00;100.00
7824;BME280;3957;48.61947800;9.05303100;2022-12-18T04:31:27;97064.38;;;-13.03;100.00
7824;BME280;3957;48.61947800;9.05303100;2022-12-18T04:32:28;97064.31;;;-13.02;100.00
7824;BME280;3957;48.61947800;9.05303100;2022-12-18T04:33:28;97068.56;;;-12.99;100.00
7824;BME280;3957;48.61947800;9.05303100;2022-12-18T04:34:28;97071.78;;;-12.89;100.00
7824;BME280;3957;48.61947800;9.05303100;2022-12-18T04:35:29;97069.16;;;-12.88;100.00
7824;BME280;3957;48.61947800;9.05303100;2022-12-18T04:36:30;97073.31;;;-12.82;100.00
7824;BME280;3957;48.61947800;9.05303100;2022-12-18T04:37:31;97070.59;;;-12.77;100.00
7824;BME280;3957;48.61947800;9.05303100;2022-12-18T04:38:32;97070.41;;;-12.68;100.00
7824;BME280;3957;48.61947800;9.05303100;2022-12-18T04:39:39;97071.28;;;-12.69;100.00
7824;BME280;3957;48.61947800;9.05303100;2022-12-18T04:40:45;97064.28;;;-12.64;100.00
7824;BME280;3957;48.61947800;9.05303100;2022-12-18T04:41:54;97069.25;;;-12.56;100.00
7824;BME280;3957;48.61947800;9.05303100;2022-12-18T04:42:54;97071.06;;;-12.60;100.00
7824;BME280;3957;48.61947800;9.05303100;2022-12-18T04:43:54;97070.31;;;-12.65;100.00
7824;BME280;3957;48.61947800;9.05303100;2022-12-18T04:44:55;97060.09;;;-12.68;100.00
7824;BME280;3957;48.61947800;9.05303100;2022-12-18T04:46:06;97070.44;;;-12.70;100.00
7824;BME280;3957;48.61947800;9.05303100;2022-12-18T04:47:06;97066.16;;;-12.71;100.00
7824;BME280;3957;48.61947800;9.05303100;2022-12-18T04:48:07;97068.84;;;-12.75;100.00
7824;BME280;3957;48.61947800;9.05303100;2022-12-18T04:49:08;97057.06;;;-12.86;100.00
7824;BME280;3957;48.61947800;9.05303100;2022-12-18T04:50:10;97058.13;;;-12.94;100.00
7824;BME280;3957;48.61947800;9.05303100;2022-12-18T04:51:10;97064.19;;;-12.97;100.00
7824;BME280;3957;48.61947800;9.05303100;2022-12-18T04:52:13;97065.00;;;-12.93;100.00
7824;BME280;3957;48.61947800;9.05303100;2022-12-18T04:53:13;97056.59;;;-13.02;100.00
7824;BME280;3957;48.61947800;9.05303100;2022-12-18T04:54:13;97055.81;;;-13.05;100.00
7824;BME280;3957;48.61947800;9.05303100;2022-12-18T04:55:14;97053.34;;;-13.10;100.00
7824;BME280;3957;48.61947800;9.05303100;2022-12-18T04:56:15;97057.75;;;-13.15;100.00
7824;BME280;3957;48.61947800;9.05303100;2022-12-18T04:57:16;97057.00;;;-13.20;100.00
7824;BME280;3957;48.61947800;9.05303100;2022-12-18T04:58:18;97053.63;;;-13.22;100.00
7824;BME280;3957;48.61947800;9.05303100;2022-12-18T04:59:18;97055.56;;;-13.32;100.00
7824;BME280;3957;48.61947800;9.05303100;2022-12-18T05:00:19;97040.31;;;-13.40;100.00
7824;BME280;3957;48.61947800;9.05303100;2022-12-18T05:01:19;97042.03;;;-13.40;100.00
7824;BME280;3957;48.61947800;9.05303100;2022-12-18T05:02:19;97043.06;;;-13.47;100.00
7824;BME280;3957;48.61947800;9.05303100;2022-12-18T05:03:20;97049.97;;;-13.49;100.00
7824;BME280;3957;48.61947800;9.05303100;2022-12-18T05:04:20;97047.50;;;-13.54;100.00
7824;BME280;3957;48.61947800;9.05303100;2022-12-18T05:05:21;97051.00;;;-13.58;100.00
7824;BME280;3957;48.61947800;9.05303100;2022-12-18T05:06:21;97048.50;;;-13.61;100.00
7824;BME280;3957;48.61947800;9.05303100;2022-12-18T05:07:21;97046.72;;;-13.59;100.00
7824;BME280;3957;48.61947800;9.05303100;2022-12-18T05:08:22;97045.94;;;-13.61;100.00
7824;BME280;3957;48.61947800;9.05303100;2022-12-18T05:09:23;97051.13;;;-13.64;100.00
7824;BME280;3957;48.61947800;9.05303100;2022-12-18T05:10:23;97045.06;;;-13.62;100.00
7824;BME280;3957;48.61947800;9.05303100;2022-12-18T05:11:23;97051.84;;;-13.58;100.00
7824;BME280;3957;48.61947800;9.05303100;2022-12-18T05:12:24;97052.72;;;-13.59;100.00
7824;BME280;3957;48.61947800;9.05303100;2022-12-18T05:13:24;97050.13;;;-13.57;100.00
7824;BME280;3957;48.61947800;9.05303100;2022-12-18T05:14:25;97055.28;;;-13.57;100.00
7824;BME280;3957;48.61947800;9.05303100;2022-12-18T05:15:30;97052.75;;;-13.60;100.00
7824;BME280;3957;48.61947800;9.05303100;2022-12-18T05:16:30;97054.59;;;-13.65;100.00
7824;BME280;3957;48.61947800;9.05303100;2022-12-18T05:17:31;97052.09;;;-13.70;100.00
7824;BME280;3957;48.61947800;9.05303100;2022-12-18T05:18:31;97054.72;;;-13.72;100.00
7824;BME280;3957;48.61947800;9.05303100;2022-12-18T05:19:32;97054.75;;;-13.73;100.00
7824;BME280;3957;48.61947800;9.05303100;2022-12-18T05:20:32;97055.69;;;-13.77;100.00